createdAt,value
2022-10-06T00:01:36.481Z,88
2022-10-06T00:05:01.613Z,88
2022-10-06T00:08:27.150Z,88
2022-10-06T00:11:51.981Z,88
2022-10-06T00:15:17.141Z,88
2022-10-06T00:18:42.312Z,88
2022-10-06T00:22:07.470Z,88
2022-10-06T00:25:32.664Z,88
2022-10-06T00:28:57.868Z,88
2022-10-06T00:32:23.017Z,88
2022-10-06T00:35:48.180Z,88
2022-10-06T00:39:13.359Z,88
2022-10-06T00:42:38.572Z,88
2022-10-06T00:46:03.792Z,88
2022-10-06T00:49:28.927Z,88
2022-10-06T00:52:54.126Z,88
2022-10-06T00:56:19.315Z,88
2022-10-06T00:59:44.581Z,88
2022-10-06T01:03:09.803Z,88
2022-10-06T01:06:34.958Z,88
2022-10-06T01:10:00.149Z,88
2022-10-06T01:13:25.283Z,88
2022-10-06T01:16:50.459Z,88
2022-10-06T01:20:15.632Z,88
2022-10-06T01:23:40.786Z,88
2022-10-06T01:27:05.971Z,88
2022-10-06T01:30:31.151Z,88
2022-10-06T01:33:56.326Z,88
2022-10-06T01:37:21.523Z,88
2022-10-06T01:40:46.673Z,88
2022-10-06T01:44:11.852Z,88
2022-10-06T01:47:37.003Z,88
2022-10-06T01:51:02.179Z,88
2022-10-06T01:54:27.382Z,88
2022-10-06T01:57:52.537Z,88
2022-10-06T02:01:17.741Z,88
2022-10-06T02:04:42.879Z,88
2022-10-06T02:08:08.043Z,88
2022-10-06T02:11:33.254Z,88
2022-10-06T02:14:58.399Z,88
2022-10-06T02:18:23.580Z,88
2022-10-06T02:21:48.748Z,88
2022-10-06T02:25:13.906Z,88
2022-10-06T02:28:39.248Z,88
2022-10-06T02:32:04.229Z,89
2022-10-06T02:35:29.370Z,89
2022-10-06T02:38:54.541Z,89
2022-10-06T02:42:19.726Z,88
2022-10-06T02:45:44.918Z,88
2022-10-06T02:49:10.050Z,88
2022-10-06T02:52:35.207Z,88
2022-10-06T02:56:00.394Z,89
2022-10-06T02:59:25.566Z,89
2022-10-06T03:02:50.757Z,89
2022-10-06T03:06:15.908Z,89
2022-10-06T03:09:41.065Z,89
2022-10-06T03:13:06.240Z,89
2022-10-06T03:16:31.466Z,89
2022-10-06T03:19:56.678Z,89
2022-10-06T03:23:21.776Z,89
2022-10-06T03:26:46.954Z,89
2022-10-06T03:30:12.121Z,89
2022-10-06T03:33:37.274Z,89
2022-10-06T03:37:02.458Z,89
2022-10-06T03:40:27.595Z,89
2022-10-06T03:43:52.765Z,90
2022-10-06T03:47:17.904Z,90
2022-10-06T03:50:43.086Z,90
2022-10-06T03:54:08.246Z,90
2022-10-06T03:57:33.359Z,90
2022-10-06T04:00:58.618Z,90
2022-10-06T04:04:23.847Z,90
2022-10-06T04:07:49.007Z,90
2022-10-06T04:11:14.181Z,90
2022-10-06T04:14:39.351Z,90
2022-10-06T04:18:04.511Z,90
2022-10-06T04:21:29.738Z,90
2022-10-06T04:24:54.905Z,90
2022-10-06T04:28:20.169Z,90
2022-10-06T04:31:45.287Z,90
2022-10-06T04:35:10.416Z,90
2022-10-06T04:38:35.675Z,90
2022-10-06T04:42:00.860Z,90
2022-10-06T04:45:26.060Z,91
2022-10-06T04:48:51.201Z,91
2022-10-06T04:52:16.364Z,91
2022-10-06T04:55:41.539Z,91
2022-10-06T04:59:06.699Z,91
2022-10-06T05:02:31.905Z,92
2022-10-06T05:05:56.994Z,92
2022-10-06T05:09:22.203Z,92
2022-10-06T05:12:47.351Z,92
2022-10-06T05:16:12.585Z,93
2022-10-06T05:19:37.717Z,92
2022-10-06T05:23:02.845Z,92
2022-10-06T05:26:28.054Z,92
2022-10-06T05:29:53.224Z,93
2022-10-06T05:33:18.373Z,93
2022-10-06T05:36:43.568Z,93
2022-10-06T05:40:08.691Z,93
2022-10-06T05:43:33.846Z,93
2022-10-06T05:46:59.025Z,93
2022-10-06T05:50:24.234Z,93
2022-10-06T05:53:49.426Z,93
2022-10-06T05:57:14.563Z,93
2022-10-06T06:00:39.725Z,93
2022-10-06T06:04:04.930Z,93
2022-10-06T06:07:30.115Z,93
2022-10-06T06:10:55.334Z,93
2022-10-06T06:14:20.510Z,93
2022-10-06T06:17:45.693Z,93
2022-10-06T06:21:10.867Z,93
2022-10-06T06:24:36.127Z,93
2022-10-06T06:28:01.361Z,93
2022-10-06T06:31:26.690Z,93
2022-10-06T06:34:51.665Z,93
2022-10-06T06:38:16.886Z,93
2022-10-06T06:41:42.091Z,93
2022-10-06T06:45:07.432Z,93
2022-10-06T06:48:33.156Z,93
2022-10-06T06:51:57.724Z,93
2022-10-06T06:55:22.899Z,92
2022-10-06T06:58:48.138Z,92
2022-10-06T07:02:13.418Z,93
2022-10-06T07:05:38.582Z,93
2022-10-06T07:09:03.776Z,93
2022-10-06T07:12:28.970Z,93
2022-10-06T07:15:54.244Z,93
2022-10-06T07:19:23.895Z,93
2022-10-06T07:22:44.587Z,92
2022-10-06T07:26:09.769Z,92
2022-10-06T07:29:34.973Z,91
2022-10-06T07:33:00.172Z,91
2022-10-06T07:36:25.525Z,89
2022-10-06T07:39:50.582Z,87
2022-10-06T07:43:15.740Z,87
2022-10-06T07:46:40.952Z,86
2022-10-06T07:50:06.131Z,86
2022-10-06T07:53:31.306Z,86
2022-10-06T07:56:56.490Z,86
2022-10-06T08:00:21.743Z,86
2022-10-06T08:03:46.930Z,86
2022-10-06T08:07:12.124Z,85
2022-10-06T08:10:37.355Z,84
2022-10-06T08:14:02.503Z,82
2022-10-06T08:17:27.724Z,82
2022-10-06T08:20:52.933Z,79
2022-10-06T08:24:18.128Z,79
2022-10-06T08:27:43.363Z,78
2022-10-06T08:31:08.550Z,79
2022-10-06T08:34:33.751Z,79
2022-10-06T08:37:58.948Z,79
2022-10-06T08:41:24.163Z,78
2022-10-06T08:44:49.524Z,77
2022-10-06T08:48:14.598Z,77
2022-10-06T08:51:39.789Z,78
2022-10-06T08:55:04.955Z,75
2022-10-06T08:58:30.104Z,76
2022-10-06T09:01:55.533Z,75
2022-10-06T09:05:20.469Z,74
2022-10-06T09:08:45.737Z,75
2022-10-06T09:12:10.964Z,73
2022-10-06T09:15:36.179Z,74
2022-10-06T09:19:08.500Z,73
2022-10-06T09:22:26.579Z,74
2022-10-06T09:25:51.752Z,70
2022-10-06T09:29:16.958Z,71
2022-10-06T09:32:42.188Z,71
2022-10-06T09:36:07.390Z,71
2022-10-06T09:39:32.561Z,70
2022-10-06T09:42:57.755Z,69
2022-10-06T09:46:22.942Z,68
2022-10-06T09:49:48.157Z,68
2022-10-06T09:53:13.432Z,69
2022-10-06T09:56:38.583Z,68
2022-10-06T10:00:03.763Z,69
2022-10-06T10:03:28.983Z,69
2022-10-06T10:06:54.142Z,70
2022-10-06T10:10:19.418Z,69
2022-10-06T10:13:44.606Z,68
2022-10-06T10:17:09.843Z,68
2022-10-06T10:20:34.957Z,68
2022-10-06T10:24:00.223Z,67
2022-10-06T10:27:25.438Z,66
2022-10-06T10:30:50.577Z,65
2022-10-06T10:34:25.286Z,64
2022-10-06T10:37:41.123Z,64
2022-10-06T10:41:06.298Z,63
2022-10-06T10:44:31.489Z,61
2022-10-06T10:47:56.648Z,61
2022-10-06T10:51:21.983Z,64
2022-10-06T10:54:47.215Z,63
2022-10-06T10:58:12.397Z,62
2022-10-06T11:01:37.638Z,60
2022-10-06T11:05:02.706Z,60
2022-10-06T11:08:27.882Z,61
2022-10-06T11:11:53.049Z,60
2022-10-06T11:15:18.285Z,61
2022-10-06T11:18:43.537Z,61
2022-10-06T11:22:08.821Z,61
2022-10-06T11:25:34.924Z,60
2022-10-06T11:28:59.128Z,60
2022-10-06T11:32:27.204Z,58
2022-10-06T11:35:52.404Z,57
2022-10-06T11:39:17.536Z,59
2022-10-06T11:42:42.720Z,60
2022-10-06T11:46:07.979Z,62
2022-10-06T11:49:33.095Z,59
2022-10-06T11:52:58.334Z,57
2022-10-06T11:56:23.509Z,58
2022-10-06T11:59:48.664Z,56
2022-10-06T12:03:13.854Z,56
2022-10-06T12:06:39.042Z,58
2022-10-06T12:10:04.219Z,60
2022-10-06T12:17:10.499Z,60
2022-10-06T12:20:19.861Z,60
2022-10-06T12:23:45.025Z,60
2022-10-06T12:27:10.296Z,62
2022-10-06T12:30:35.571Z,62
2022-10-06T12:34:00.654Z,62
2022-10-06T12:37:25.818Z,62
2022-10-06T12:40:51.059Z,63
2022-10-06T12:44:16.353Z,61
2022-10-06T12:47:41.457Z,61
2022-10-06T12:51:06.630Z,61
2022-10-06T12:54:31.805Z,61
2022-10-06T12:57:56.979Z,60
2022-10-06T13:01:22.231Z,61
2022-10-06T13:04:47.379Z,61
2022-10-06T13:08:12.569Z,62
2022-10-06T13:11:37.760Z,60
2022-10-06T13:15:02.945Z,63
2022-10-06T13:18:28.144Z,63
2022-10-06T13:21:53.285Z,61
2022-10-06T13:25:18.471Z,62
2022-10-06T13:28:43.652Z,61
2022-10-06T13:32:08.872Z,62
2022-10-06T13:35:34.104Z,61
2022-10-06T13:38:59.242Z,60
2022-10-06T13:42:24.443Z,59
2022-10-06T13:45:49.653Z,60
2022-10-06T13:49:14.786Z,60
2022-10-06T13:52:39.983Z,58
2022-10-06T13:56:05.133Z,59
2022-10-06T13:59:30.348Z,58
2022-10-06T14:02:55.574Z,58
2022-10-06T14:06:20.719Z,59
2022-10-06T14:09:45.912Z,60
2022-10-06T14:13:11.064Z,61
2022-10-06T14:16:36.290Z,61
2022-10-06T14:20:01.912Z,59
2022-10-06T14:23:26.680Z,59
2022-10-06T14:26:51.856Z,58
2022-10-06T15:03:44.528Z,57
2022-10-06T15:07:06.690Z,60
2022-10-06T15:10:31.871Z,60
2022-10-06T15:13:57.075Z,61
2022-10-06T15:17:22.251Z,59
2022-10-06T15:20:47.554Z,61
2022-10-06T15:24:12.611Z,62
2022-10-06T15:27:37.890Z,61
2022-10-06T15:31:03.140Z,61
2022-10-06T15:34:28.216Z,60
2022-10-06T15:37:53.423Z,61
2022-10-06T15:41:18.624Z,61
2022-10-06T15:44:43.832Z,62
2022-10-06T15:48:09.038Z,62
2022-10-06T15:51:34.214Z,64
2022-10-06T15:55:00.040Z,65
2022-10-06T15:58:25.175Z,63
2022-10-06T16:01:50.498Z,63
2022-10-06T16:05:15.614Z,66
2022-10-06T16:08:40.806Z,66
2022-10-06T16:12:06.029Z,67
2022-10-06T16:15:31.191Z,67
2022-10-06T16:18:56.343Z,66
2022-10-06T16:22:21.545Z,67
2022-10-06T16:25:46.747Z,68
2022-10-06T16:29:11.973Z,68
2022-10-06T16:32:37.405Z,69
2022-10-06T16:36:02.335Z,70
2022-10-06T16:39:27.543Z,71
2022-10-06T16:42:52.754Z,71
2022-10-06T16:46:17.992Z,72
2022-10-06T16:49:43.139Z,72
2022-10-06T16:53:08.307Z,73
2022-10-06T16:56:33.465Z,73
2022-10-06T16:59:59.024Z,74
2022-10-06T17:03:24.315Z,74
2022-10-06T17:06:49.481Z,72
2022-10-06T17:10:19.952Z,73
2022-10-06T17:13:39.871Z,73
2022-10-06T17:17:05.079Z,74
2022-10-06T17:20:30.291Z,74
2022-10-06T17:23:55.488Z,74
2022-10-06T17:27:20.694Z,75
2022-10-06T17:30:45.866Z,74
2022-10-06T17:34:11.052Z,74
2022-10-06T17:37:36.261Z,74
2022-10-06T17:41:01.434Z,75
2022-10-06T17:44:26.595Z,74
2022-10-06T17:47:51.807Z,75
2022-10-06T17:51:17.151Z,75
2022-10-06T17:54:42.364Z,76
2022-10-06T17:58:07.652Z,75
2022-10-06T18:01:32.892Z,75
2022-10-06T18:04:58.189Z,76
2022-10-06T18:08:23.424Z,76
2022-10-06T18:11:48.694Z,76
2022-10-06T18:15:13.939Z,76
2022-10-06T18:18:39.258Z,76
2022-10-06T18:22:04.557Z,75
2022-10-06T18:25:29.906Z,75
2022-10-06T18:28:55.218Z,75
2022-10-06T18:33:44.997Z,76
2022-10-06T18:36:15.787Z,76
2022-10-06T18:39:11.100Z,76
2022-10-06T18:42:36.374Z,75
2022-10-06T18:46:01.882Z,75
2022-10-06T18:49:26.991Z,75
2022-10-06T18:52:52.297Z,76
2022-10-06T18:56:17.615Z,77
2022-10-06T18:59:42.864Z,77
2022-10-06T19:03:08.148Z,77
2022-10-06T19:06:33.386Z,77
2022-10-06T19:09:58.716Z,77
2022-10-06T19:13:24.008Z,77
2022-10-06T19:16:49.297Z,77
2022-10-06T19:20:14.630Z,77
2022-10-06T19:23:39.879Z,77
2022-10-06T19:27:05.130Z,76
2022-10-06T19:30:30.413Z,77
2022-10-06T19:33:55.664Z,76
2022-10-06T19:37:21.025Z,76
2022-10-06T19:40:46.231Z,76
2022-10-06T19:44:11.536Z,76
2022-10-06T19:47:36.802Z,76
2022-10-06T19:51:04.387Z,76
2022-10-06T19:54:29.750Z,76
2022-10-06T19:57:54.952Z,75
2022-10-06T20:01:20.503Z,74
2022-10-06T20:04:45.722Z,75
2022-10-06T20:08:11.014Z,75
2022-10-06T20:11:36.339Z,75
2022-10-06T20:15:01.551Z,75
2022-10-06T20:18:26.772Z,75
2022-10-06T20:21:52.009Z,75
2022-10-06T20:25:17.231Z,75
2022-10-06T20:28:42.581Z,74
2022-10-06T20:32:07.693Z,75
2022-10-06T20:35:32.931Z,75
2022-10-06T20:38:58.195Z,75
2022-10-06T20:42:23.425Z,75
2022-10-06T20:45:48.751Z,75
2022-10-06T20:49:13.925Z,74
2022-10-06T20:52:39.207Z,74
2022-10-06T20:56:04.437Z,75
2022-10-06T20:59:29.671Z,73
2022-10-06T21:02:55.481Z,74
2022-10-06T21:06:21.146Z,73
2022-10-06T21:09:51.325Z,75
2022-10-06T21:13:12.606Z,74
2022-10-06T21:16:38.316Z,76
2022-10-06T21:20:04.110Z,74
2022-10-06T21:23:29.737Z,73
2022-10-06T21:26:55.444Z,74
2022-10-06T21:30:38.111Z,75
2022-10-06T21:34:02.539Z,75
2022-10-06T21:37:43.825Z,75
2022-10-06T21:41:09.325Z,75
2022-10-06T21:44:35.056Z,75
2022-10-06T21:48:00.776Z,76
2022-10-06T21:51:26.501Z,75
2022-10-06T21:54:52.227Z,75
2022-10-06T21:58:17.941Z,74
2022-10-06T22:01:43.709Z,76
2022-10-06T22:05:09.373Z,75
2022-10-06T22:08:35.059Z,76
2022-10-06T22:12:00.787Z,76
2022-10-06T22:15:26.461Z,76
2022-10-06T22:18:52.173Z,76
2022-10-06T22:22:17.876Z,76
2022-10-06T22:25:43.566Z,76
2022-10-06T22:29:09.293Z,76
2022-10-06T22:32:34.996Z,77
2022-10-06T22:36:00.717Z,76
2022-10-06T22:39:26.451Z,77
2022-10-06T22:42:52.167Z,77
2022-10-06T22:46:17.931Z,78
2022-10-06T22:49:43.558Z,77
2022-10-06T22:53:09.269Z,77
2022-10-06T22:56:35.000Z,77
2022-10-06T23:00:00.698Z,77
2022-10-06T23:03:26.493Z,76
2022-10-06T23:06:52.100Z,77
2022-10-06T23:10:17.782Z,77
2022-10-06T23:13:43.539Z,77
2022-10-06T23:17:09.228Z,77
2022-10-06T23:20:34.938Z,77
2022-10-06T23:24:00.622Z,77
2022-10-06T23:27:26.344Z,77
2022-10-06T23:30:52.053Z,77
2022-10-06T23:34:17.779Z,78
2022-10-06T23:37:43.663Z,78
2022-10-06T23:41:09.214Z,78
2022-10-06T23:44:34.923Z,78
2022-10-06T23:48:00.618Z,78
2022-10-06T23:51:26.320Z,79
2022-10-06T23:54:52.063Z,79
2022-10-06T23:58:17.769Z,79
